Time;durP1;ratioP1;P1;durP2;ratioP2;P2;SDS_P1;SDS_P2;PMS_P1;PMS_P2;Temp;Humidity;BMP_temperature;BMP_pressure;BME280_temperature;BME280_humidity;BME280_pressure;Samples;Min_cycle;Max_cycle;Signal;HPM_P1;HPM_P2
2022/09/25 00:01:47;;;;;;;34.75;21.23;;;13.30;99.90;;;;;;5049886;28;20020;-77
2022/09/25 00:04:12;;;;;;;31.63;19.80;;;13.30;99.90;;;;;;5038188;28;20032;-77
2022/09/25 00:06:39;;;;;;;35.30;21.45;;;13.30;99.90;;;;;;5049710;28;20032;-77
2022/09/25 00:09:04;;;;;;;34.22;20.17;;;13.30;99.90;;;;;;5045236;28;20017;-76
2022/09/25 00:11:31;;;;;;;34.80;20.23;;;13.30;99.90;;;;;;5051028;28;20078;-76
2022/09/25 00:13:59;;;;;;;36.25;21.48;;;13.30;99.90;;;;;;5064128;28;20024;-76
2022/09/25 00:16:29;;;;;;;34.50;21.48;;;13.30;99.90;;;;;;5064652;28;20039;-76
2022/09/25 00:21:43;;;;;;;37.60;22.35;;;13.30;99.90;;;;;;5068179;28;20229;-74
2022/09/25 00:24:11;;;;;;;37.83;22.15;;;13.30;99.90;;;;;;5057274;28;20053;-75
2022/09/25 00:26:41;;;;;;;45.85;25.52;;;13.30;99.90;;;;;;5058528;28;20028;-75
2022/09/25 00:29:08;;;;;;;40.63;23.10;;;13.30;99.90;;;;;;5067565;28;20128;-74
2022/09/25 00:31:34;;;;;;;41.28;23.15;;;13.30;99.90;;;;;;5065586;28;20541;-75
2022/09/25 00:34:02;;;;;;;41.08;24.88;;;13.30;99.90;;;;;;5065961;28;20029;-74
2022/09/25 00:36:30;;;;;;;43.85;24.30;;;13.30;99.90;;;;;;5046304;28;20140;-74
2022/09/25 00:38:56;;;;;;;37.80;22.42;;;13.30;99.90;;;;;;5040968;28;20017;-74
2022/09/25 00:41:24;;;;;;;38.25;22.52;;;13.30;99.90;;;;;;5067359;28;20027;-75
2022/09/25 00:43:54;;;;;;;40.70;23.83;;;13.30;99.90;;;;;;5056123;28;20021;-75
2022/09/25 00:46:41;;;;;;;52.15;25.58;;;13.30;99.90;;;;;;5063995;28;20032;-76
2022/09/25 00:49:18;;;;;;;40.13;22.73;;;13.30;99.90;;;;;;5056982;28;20025;-76
2022/09/25 00:52:01;;;;;;;38.40;22.50;;;13.30;99.90;;;;;;5065676;28;20028;-75
2022/09/25 00:54:44;;;;;;;42.67;24.00;;;13.30;99.90;;;;;;5066523;28;20501;-75
2022/09/25 00:57:15;;;;;;;40.47;22.90;;;13.30;99.90;;;;;;5059460;28;20028;-76
2022/09/25 00:59:49;;;;;;;43.97;24.02;;;13.30;99.90;;;;;;5068982;28;20027;-75
2022/09/25 01:02:32;;;;;;;45.35;24.20;;;13.30;99.90;;;;;;5069083;28;20120;-76
2022/09/25 01:05:04;;;;;;;40.97;23.40;;;13.30;99.90;;;;;;5065936;28;20032;-76
2022/09/25 01:07:32;;;;;;;36.22;21.23;;;13.30;99.90;;;;;;5086054;28;20028;-76
2022/09/25 01:10:02;;;;;;;33.53;20.08;;;13.20;99.90;;;;;;5069805;28;20024;-76
2022/09/25 01:12:27;;;;;;;34.65;20.08;;;13.30;99.90;;;;;;5070013;28;20042;-75
2022/09/25 01:14:55;;;;;;;38.17;21.08;;;13.20;99.90;;;;;;5064217;28;20250;-75
2022/09/25 01:17:49;;;;;;;33.95;20.52;;;13.30;99.90;;;;;;5068572;28;20059;-77
2022/09/25 01:20:38;;;;;;;33.65;19.27;;;13.30;99.90;;;;;;5086581;28;20024;-76
2022/09/25 01:23:15;;;;;;;36.67;20.45;;;13.30;99.90;;;;;;5065995;28;20051;-77
2022/09/25 01:26:15;;;;;;;38.03;21.50;;;13.20;99.90;;;;;;5047283;28;20374;-77
2022/09/25 01:28:47;;;;;;;40.08;20.70;;;13.20;99.90;;;;;;5071300;28;20024;-78
2022/09/25 01:31:41;;;;;;;35.13;20.30;;;13.20;99.90;;;;;;5092074;28;20033;-77
2022/09/25 01:34:18;;;;;;;34.58;19.55;;;13.20;99.90;;;;;;5067917;28;20075;-77
2022/09/25 01:37:06;;;;;;;36.10;20.35;;;13.20;99.90;;;;;;5070563;28;20020;-76
2022/09/25 01:39:39;;;;;;;33.75;19.98;;;13.20;99.90;;;;;;5068689;28;20034;-77
2022/09/25 01:42:10;;;;;;;37.00;20.52;;;13.20;99.90;;;;;;5067065;28;20012;-77
2022/09/25 01:44:43;;;;;;;;;;;13.20;99.90;;;;;;5066485;28;20433;-77
2022/09/25 01:47:17;;;;;;;29.20;17.40;;;13.20;99.90;;;;;;5067287;28;19908;-77
2022/09/25 01:49:56;;;;;;;34.20;19.42;;;13.20;99.90;;;;;;5066705;28;20025;-76
2022/09/25 01:52:34;;;;;;;32.97;19.45;;;13.20;99.90;;;;;;5060699;28;20119;-76
2022/09/25 01:55:09;;;;;;;34.25;19.10;;;13.20;99.90;;;;;;5069471;28;20024;-76
2022/09/25 01:57:48;;;;;;;31.48;18.50;;;13.20;99.90;;;;;;5059238;28;20032;-77
2022/09/25 02:00:18;;;;;;;30.63;19.25;;;13.20;99.90;;;;;;5067318;28;20518;-77
2022/09/25 02:03:06;;;;;;;36.60;18.57;;;13.20;99.90;;;;;;5065867;28;20098;-77
2022/09/25 02:06:01;;;;;;;30.70;17.83;;;13.20;99.90;;;;;;5069619;28;20385;-77
2022/09/25 02:08:35;;;;;;;36.33;19.83;;;13.20;99.90;;;;;;5058466;28;20047;-76
2022/09/25 02:11:04;;;;;;;33.53;19.30;;;13.20;99.90;;;;;;5058019;28;20379;-77
2022/09/25 02:13:57;;;;;;;29.73;17.15;;;13.20;99.90;;;;;;5067751;28;20064;-77
2022/09/25 02:16:29;;;;;;;29.38;16.05;;;13.20;99.90;;;;;;5064595;28;20044;-77
2022/09/25 02:21:49;;;;;;;31.17;17.50;;;13.20;99.90;;;;;;5070603;28;20153;-77
2022/09/25 02:24:25;;;;;;;28.52;15.88;;;13.10;99.90;;;;;;5071260;28;20028;-78
2022/09/25 02:26:51;;;;;;;29.85;16.85;;;13.10;99.90;;;;;;5065397;28;20445;-77
2022/09/25 02:29:18;;;;;;;28.30;16.30;;;13.20;99.90;;;;;;5067930;28;20037;-77
2022/09/25 02:31:50;;;;;;;29.67;16.65;;;13.20;99.90;;;;;;5062290;28;20020;-77
2022/09/25 02:34:15;;;;;;;28.67;16.10;;;13.20;99.90;;;;;;5067755;28;20017;-77
2022/09/25 02:36:42;;;;;;;27.00;16.05;;;13.20;99.90;;;;;;5070665;28;20035;-77
2022/09/25 02:39:08;;;;;;;28.15;15.25;;;13.10;99.90;;;;;;5053543;28;20020;-78
2022/09/25 02:41:52;;;;;;;36.22;16.85;;;13.10;99.90;;;;;;5068318;28;20024;-77
2022/09/25 02:44:57;;;;;;;30.65;16.50;;;13.10;99.90;;;;;;5055686;28;20021;-77
2022/09/25 02:47:54;;;;;;;31.75;17.10;;;13.10;99.90;;;;;;5065210;28;20090;-77
2022/09/25 02:50:34;;;;;;;29.02;16.55;;;13.10;99.90;;;;;;5066416;28;20032;-77
2022/09/25 02:53:06;;;;;;;30.77;17.13;;;13.10;99.90;;;;;;5071067;28;20150;-76
2022/09/25 02:55:47;;;;;;;28.15;16.02;;;13.10;99.90;;;;;;5071555;28;20131;-76
2022/09/25 02:58:15;;;;;;;27.33;16.33;;;13.10;99.90;;;;;;5070328;28;20088;-76
2022/09/25 03:00:43;;;;;;;27.73;15.93;;;13.10;99.90;;;;;;5066594;28;20036;-76
2022/09/25 03:03:13;;;;;;;27.63;16.63;;;13.10;99.90;;;;;;5068243;28;20463;-76
2022/09/25 03:05:40;;;;;;;26.55;15.55;;;13.10;99.90;;;;;;5070992;28;20020;-78
2022/09/25 03:10:52;;;;;;;24.35;14.95;;;13.10;99.90;;;;;;5066629;28;20024;-76
2022/09/25 03:13:33;;;;;;;29.42;16.60;;;13.10;99.90;;;;;;5069504;28;20579;-76
2022/09/25 03:16:05;;;;;;;30.17;15.98;;;13.10;99.90;;;;;;5066260;28;20124;-76
2022/09/25 03:18:31;;;;;;;30.70;17.50;;;13.10;99.90;;;;;;5066638;28;20024;-76
2022/09/25 03:20:57;;;;;;;28.55;16.52;;;13.10;99.90;;;;;;5068839;28;20017;-76
2022/09/25 03:23:23;;;;;;;30.38;16.77;;;13.10;99.90;;;;;;5068175;28;20051;-76
2022/09/25 03:25:52;;;;;;;28.13;17.45;;;13.10;99.90;;;;;;5066685;28;20025;-76
2022/09/25 03:28:17;;;;;;;30.77;16.98;;;13.10;99.90;;;;;;5063062;28;20036;-76
2022/09/25 03:30:44;;;;;;;30.90;17.13;;;13.10;99.90;;;;;;5064096;28;20032;-76
2022/09/25 03:33:12;;;;;;;27.67;15.50;;;13.10;99.90;;;;;;5067941;28;20058;-76
2022/09/25 03:35:38;;;;;;;30.40;17.48;;;13.10;99.90;;;;;;5061242;28;20170;-76
2022/09/25 03:38:07;;;;;;;30.02;17.08;;;13.10;99.90;;;;;;5064391;28;20021;-76
2022/09/25 03:40:33;;;;;;;32.55;17.05;;;13.10;99.90;;;;;;5069752;28;20017;-76
2022/09/25 03:42:58;;;;;;;30.67;17.75;;;13.10;99.90;;;;;;5061049;28;20158;-76
2022/09/25 03:45:27;;;;;;;32.85;17.00;;;13.00;99.90;;;;;;5066396;28;20036;-76
2022/09/25 03:47:53;;;;;;;30.45;16.50;;;13.10;99.90;;;;;;5066337;28;20029;-76
2022/09/25 03:50:18;;;;;;;37.72;18.35;;;13.00;99.90;;;;;;5074964;28;20033;-77
2022/09/25 03:52:44;;;;;;;35.30;18.48;;;13.00;99.90;;;;;;5077898;28;20543;-76
2022/09/25 03:55:10;;;;;;;37.38;18.63;;;13.00;99.90;;;;;;5066474;28;20032;-78
2022/09/25 03:57:37;;;;;;;35.78;19.05;;;13.00;99.90;;;;;;5066148;28;20444;-76
2022/09/25 04:00:04;;;;;;;32.97;17.88;;;13.00;99.90;;;;;;5062316;28;20362;-78
2022/09/25 04:02:30;;;;;;;36.28;18.48;;;13.00;99.90;;;;;;5047989;28;20029;-76
2022/09/25 04:04:55;;;;;;;35.00;18.15;;;13.00;99.90;;;;;;5068473;28;20024;-76
2022/09/25 04:07:22;;;;;;;34.88;19.42;;;13.00;99.90;;;;;;5067823;28;20032;-76
2022/09/25 04:09:48;;;;;;;33.28;16.73;;;13.00;99.90;;;;;;5067987;28;20025;-76
2022/09/25 04:12:13;;;;;;;33.63;16.75;;;13.00;99.90;;;;;;5064016;28;20078;-77
2022/09/25 04:14:40;;;;;;;34.90;16.65;;;13.00;99.90;;;;;;5063604;28;20028;-76
2022/09/25 04:17:06;;;;;;;33.70;17.48;;;13.00;99.90;;;;;;5066440;28;20032;-77
2022/09/25 04:19:32;;;;;;;34.15;16.67;;;12.90;99.90;;;;;;5067391;28;20025;-76
2022/09/25 04:21:58;;;;;;;29.67;16.63;;;13.00;99.90;;;;;;5068438;28;20048;-76
2022/09/25 04:27:09;;;;;;;30.42;16.10;;;12.90;99.90;;;;;;5063244;28;20066;-77
2022/09/25 04:29:36;;;;;;;32.25;17.40;;;12.90;99.90;;;;;;5065801;28;20024;-78
2022/09/25 04:34:46;;;;;;;31.00;16.30;;;12.90;99.90;;;;;;5072170;28;20033;-76
2022/09/25 04:37:12;;;;;;;27.17;15.23;;;12.90;99.90;;;;;;5065750;28;20025;-76
2022/09/25 04:39:38;;;;;;;31.35;16.63;;;12.90;99.90;;;;;;5065126;28;20075;-76
2022/09/25 04:42:04;;;;;;;30.85;16.55;;;12.90;99.90;;;;;;5072077;28;20017;-76
2022/09/25 04:44:30;;;;;;;29.92;16.05;;;12.90;99.90;;;;;;5067506;28;20054;-77
2022/09/25 04:46:56;;;;;;;27.88;15.75;;;12.90;99.90;;;;;;5067469;28;20028;-76
2022/09/25 04:49:22;;;;;;;31.55;16.42;;;12.90;99.90;;;;;;5070432;28;20078;-77
2022/09/25 04:51:47;;;;;;;25.95;14.93;;;12.90;99.90;;;;;;5070500;28;20020;-76
2022/09/25 04:54:15;;;;;;;32.38;17.58;;;12.90;99.90;;;;;;5069531;28;20036;-76
2022/09/25 04:56:42;;;;;;;29.88;16.45;;;12.90;99.90;;;;;;5054329;28;20017;-77
2022/09/25 04:59:10;;;;;;;32.22;17.40;;;12.90;99.90;;;;;;5067784;28;20027;-77
2022/09/25 05:01:36;;;;;;;24.55;14.35;;;12.90;99.90;;;;;;5069795;28;20025;-76
2022/09/25 05:04:02;;;;;;;31.75;16.88;;;12.90;99.90;;;;;;5068146;28;20055;-76
2022/09/25 05:06:28;;;;;;;26.85;16.20;;;12.90;99.90;;;;;;5073005;28;20068;-76
2022/09/25 05:08:56;;;;;;;28.05;17.00;;;12.90;99.90;;;;;;5051539;28;20029;-77
2022/09/25 05:11:22;;;;;;;29.13;17.13;;;12.90;99.90;;;;;;5071455;28;20082;-76
2022/09/25 05:13:51;;;;;;;31.65;16.23;;;12.90;99.90;;;;;;5068747;28;20033;-76
2022/09/25 05:16:17;;;;;;;32.22;17.42;;;12.90;99.90;;;;;;5057291;28;20033;-77
2022/09/25 05:18:43;;;;;;;29.48;16.77;;;12.90;99.90;;;;;;5082333;28;20025;-76
2022/09/25 05:21:09;;;;;;;34.88;18.85;;;12.90;99.90;;;;;;5066959;28;20077;-77
2022/09/25 05:23:34;;;;;;;29.02;17.20;;;12.90;99.90;;;;;;5070038;28;20111;-76
2022/09/25 05:26:00;;;;;;;30.27;17.80;;;12.90;99.90;;;;;;5066645;28;20568;-77
2022/09/25 05:28:30;;;;;;;30.92;17.38;;;12.90;99.90;;;;;;5063679;28;20038;-77
2022/09/25 05:31:01;;;;;;;32.10;17.48;;;12.90;99.90;;;;;;5068295;28;20017;-77
2022/09/25 05:33:27;;;;;;;29.58;18.10;;;12.90;99.90;;;;;;5066668;28;20033;-77
2022/09/25 05:35:52;;;;;;;29.50;16.95;;;12.90;99.90;;;;;;5064700;28;20025;-77
2022/09/25 05:38:18;;;;;;;28.75;17.58;;;12.90;99.90;;;;;;5069323;28;20037;-76
2022/09/25 05:40:44;;;;;;;28.50;17.48;;;12.90;99.90;;;;;;5060923;28;20206;-77
2022/09/25 05:43:11;;;;;;;36.33;18.55;;;12.90;99.90;;;;;;5062340;28;20556;-77
2022/09/25 05:45:37;;;;;;;31.92;17.40;;;12.90;99.90;;;;;;5061478;28;20377;-76
2022/09/25 05:48:08;;;;;;;32.50;18.05;;;12.90;99.90;;;;;;5069492;28;20025;-76
2022/09/25 05:50:34;;;;;;;31.60;18.75;;;12.90;99.90;;;;;;5066911;28;20542;-76
2022/09/25 05:53:02;;;;;;;32.72;19.10;;;12.90;99.90;;;;;;5070871;28;20028;-77
2022/09/25 05:55:29;;;;;;;32.17;18.70;;;12.90;99.90;;;;;;5056626;28;20032;-76
2022/09/25 05:58:00;;;;;;;33.58;18.17;;;12.90;99.90;;;;;;5066855;28;20021;-75
2022/09/25 06:00:26;;;;;;;29.55;17.40;;;13.00;99.90;;;;;;5058726;28;20086;-76
2022/09/25 06:02:52;;;;;;;33.42;18.20;;;12.90;99.90;;;;;;5070944;28;20067;-76
2022/09/25 06:05:18;;;;;;;32.72;18.98;;;12.90;99.90;;;;;;5065286;28;20056;-76
2022/09/25 06:07:44;;;;;;;33.60;19.52;;;13.00;99.90;;;;;;5069345;28;20020;-75
2022/09/25 06:10:10;;;;;;;35.28;20.13;;;13.00;99.90;;;;;;5065873;28;20062;-77
2022/09/25 06:12:36;;;;;;;34.05;19.40;;;13.00;99.90;;;;;;5079828;28;20024;-78
2022/09/25 06:15:02;;;;;;;33.97;19.17;;;13.00;99.90;;;;;;5069557;28;20032;-76
2022/09/25 06:17:27;;;;;;;31.88;18.92;;;13.00;99.90;;;;;;5070913;28;20094;-75
2022/09/25 06:19:53;;;;;;;31.58;19.27;;;13.00;99.90;;;;;;5066532;28;20384;-76
2022/09/25 06:22:18;;;;;;;35.40;19.42;;;13.00;99.90;;;;;;5070542;28;20397;-75
2022/09/25 06:24:44;;;;;;;30.48;18.23;;;13.00;99.90;;;;;;5016083;28;1481209;-76
2022/09/25 06:27:10;;;;;;;36.03;20.30;;;13.00;99.90;;;;;;5067890;28;20093;-75
2022/09/25 06:29:36;;;;;;;32.40;19.15;;;13.00;99.90;;;;;;5066558;28;20035;-75
2022/09/25 06:32:02;;;;;;;38.95;21.80;;;13.00;99.90;;;;;;5063582;28;20046;-76
2022/09/25 06:34:28;;;;;;;31.45;19.33;;;13.00;99.90;;;;;;5059156;28;20067;-74
2022/09/25 06:36:54;;;;;;;38.33;22.40;;;13.00;99.90;;;;;;5063873;28;20642;-74
2022/09/25 06:39:19;;;;;;;35.28;21.52;;;13.10;99.90;;;;;;5067527;28;20468;-75
2022/09/25 06:41:45;;;;;;;36.85;21.65;;;13.10;99.90;;;;;;5071639;28;20082;-75
2022/09/25 06:44:11;;;;;;;35.67;20.80;;;13.10;99.90;;;;;;5070799;28;20492;-75
2022/09/25 06:46:36;;;;;;;35.97;21.02;;;13.10;99.90;;;;;;5068740;28;20032;-75
2022/09/25 06:49:02;;;;;;;40.80;23.20;;;13.10;99.90;;;;;;5068178;28;20033;-76
2022/09/25 06:51:33;;;;;;;40.00;22.50;;;13.10;99.90;;;;;;5068428;28;20089;-76
2022/09/25 06:53:59;;;;;;;40.60;23.10;;;13.10;99.90;;;;;;5069054;28;20504;-76
2022/09/25 06:56:25;;;;;;;43.53;23.20;;;13.10;99.90;;;;;;5074890;28;20039;-76
2022/09/25 06:58:50;;;;;;;39.97;23.08;;;13.10;99.90;;;;;;5066283;28;20120;-77
2022/09/25 07:01:16;;;;;;;40.08;22.83;;;13.10;99.90;;;;;;5059864;28;20103;-76
2022/09/25 07:03:44;;;;;;;39.28;22.98;;;13.10;99.90;;;;;;5068330;28;20020;-76
2022/09/25 07:06:14;;;;;;;43.70;26.23;;;13.10;99.90;;;;;;5064996;28;20031;-76
2022/09/25 07:08:41;;;;;;;41.03;22.85;;;13.10;99.90;;;;;;5068317;28;20028;-76
2022/09/25 07:11:10;;;;;;;38.78;22.95;;;13.10;99.90;;;;;;5068016;28;20024;-77
2022/09/25 07:13:36;;;;;;;37.25;24.00;;;13.10;99.90;;;;;;5066638;28;20043;-75
2022/09/25 07:16:13;;;;;;;32.92;21.17;;;13.10;99.90;;;;;;5069684;28;20032;-77
2022/09/25 07:18:40;;;;;;;41.65;23.50;;;13.10;99.90;;;;;;5068612;28;20110;-77
2022/09/25 07:21:09;;;;;;;37.60;22.23;;;13.10;99.90;;;;;;5070292;28;20070;-76
2022/09/25 07:23:36;;;;;;;40.10;23.88;;;13.10;99.90;;;;;;5065314;28;20082;-76
2022/09/25 07:26:33;;;;;;;38.05;20.77;;;13.10;99.90;;;;;;5066803;28;20058;-76
2022/09/25 07:29:02;;;;;;;38.38;21.83;;;13.10;99.90;;;;;;5062775;28;20026;-76
2022/09/25 07:31:30;;;;;;;36.58;21.13;;;13.20;99.90;;;;;;5068527;28;20455;-76
2022/09/25 07:33:58;;;;;;;30.73;18.58;;;13.10;99.90;;;;;;5068435;28;20059;-76
2022/09/25 07:36:24;;;;;;;21.35;13.25;;;13.10;99.90;;;;;;5070161;28;20032;-75
2022/09/25 07:38:51;;;;;;;17.38;10.35;;;13.10;99.90;;;;;;5068399;28;20350;-76
2022/09/25 07:41:18;;;;;;;11.70;7.90;;;13.10;99.90;;;;;;5058510;28;20519;-77
2022/09/25 07:43:44;;;;;;;9.27;6.43;;;13.10;99.90;;;;;;5064444;28;20060;-77
2022/09/25 07:46:10;;;;;;;8.10;5.55;;;13.10;99.90;;;;;;5066080;28;20120;-76
2022/09/25 07:48:36;;;;;;;8.50;5.80;;;13.00;99.90;;;;;;5067360;28;20025;-76
2022/09/25 07:51:04;;;;;;;7.57;5.05;;;13.10;99.90;;;;;;5069965;28;20055;-76
2022/09/25 07:53:30;;;;;;;5.60;4.63;;;13.00;99.90;;;;;;5063828;28;20115;-75
2022/09/25 07:55:57;;;;;;;7.07;5.70;;;13.00;99.90;;;;;;5057915;28;20564;-75
2022/09/25 07:58:23;;;;;;;6.47;5.13;;;13.10;99.90;;;;;;5065546;28;20032;-77
2022/09/25 08:00:48;;;;;;;6.85;4.93;;;13.10;99.90;;;;;;5065503;28;20116;-76
2022/09/25 08:03:14;;;;;;;6.05;5.10;;;13.00;99.90;;;;;;5067157;28;20021;-76
2022/09/25 08:05:40;;;;;;;6.18;4.70;;;13.00;99.90;;;;;;5069551;28;20066;-77
2022/09/25 08:08:05;;;;;;;7.63;5.95;;;13.00;99.90;;;;;;5066748;28;20093;-78
2022/09/25 08:10:31;;;;;;;6.47;5.15;;;13.00;99.90;;;;;;5065015;28;20506;-75
2022/09/25 08:12:57;;;;;;;7.95;6.07;;;13.00;99.90;;;;;;5065372;28;20028;-76
2022/09/25 08:15:24;;;;;;;7.97;6.30;;;13.00;99.90;;;;;;5064685;28;20434;-75
2022/09/25 08:17:50;;;;;;;8.52;6.85;;;13.00;99.90;;;;;;5065084;28;20037;-77
2022/09/25 08:20:16;;;;;;;7.18;5.72;;;13.00;99.90;;;;;;5063458;28;20027;-76
2022/09/25 08:22:41;;;;;;;8.15;6.35;;;13.00;99.90;;;;;;5066334;28;20024;-77
2022/09/25 08:25:07;;;;;;;8.52;6.53;;;13.00;99.90;;;;;;5059456;28;20041;-75
2022/09/25 08:27:39;;;;;;;10.20;7.43;;;13.00;99.90;;;;;;5067501;28;20027;-75
2022/09/25 08:30:07;;;;;;;11.07;7.97;;;13.10;99.90;;;;;;5058287;28;20083;-78
2022/09/25 08:32:34;;;;;;;9.95;7.82;;;13.00;99.90;;;;;;5059993;28;20115;-76
2022/09/25 08:35:01;;;;;;;10.07;7.68;;;13.00;99.90;;;;;;5071437;28;20025;-76
2022/09/25 08:37:26;;;;;;;10.98;7.95;;;13.10;99.90;;;;;;5065407;28;20040;-76
2022/09/25 08:39:52;;;;;;;9.25;7.60;;;13.00;99.90;;;;;;5065128;28;20036;-76
2022/09/25 08:42:28;;;;;;;11.35;8.07;;;13.10;99.90;;;;;;5066603;28;20043;-76
2022/09/25 08:50:28;;;;;;;13.15;8.30;;;13.10;99.90;;;;;;5065107;28;20032;-76
2022/09/25 08:53:10;;;;;;;10.85;7.43;;;13.10;99.90;;;;;;5067717;28;20033;-75
2022/09/25 08:58:29;;;;;;;8.40;6.15;;;13.00;99.90;;;;;;5060889;28;20621;-75
2022/09/25 09:01:00;;;;;;;9.80;6.72;;;13.10;99.90;;;;;;5067125;28;20574;-75
2022/09/25 09:03:29;;;;;;;11.55;6.55;;;13.00;99.90;;;;;;5065141;28;20494;-75
2022/09/25 09:06:10;;;;;;;6.95;5.57;;;13.10;99.90;;;;;;5065129;28;20075;-75
2022/09/25 09:08:39;;;;;;;8.68;6.78;;;13.10;99.90;;;;;;5065609;28;20024;-76
2022/09/25 09:11:14;;;;;;;7.30;6.50;;;13.10;99.90;;;;;;5065382;28;20048;-76
2022/09/25 09:14:02;;;;;;;9.07;5.72;;;13.10;99.90;;;;;;5064275;28;20021;-76
2022/09/25 09:16:57;;;;;;;9.40;6.90;;;13.40;99.90;;;;;;5065769;28;20158;-76
2022/09/25 09:19:23;;;;;;;7.80;5.93;;;13.30;99.90;;;;;;5049516;28;20079;-75
2022/09/25 09:22:39;;;;;;;8.07;5.80;;;13.20;99.90;;;;;;5067994;28;20110;-75
2022/09/25 09:25:15;;;;;;;8.02;7.00;;;13.20;99.90;;;;;;5026087;28;20529;-77
2022/09/25 09:28:14;;;;;;;9.32;7.50;;;13.20;99.90;;;;;;5065521;28;20094;-74
2022/09/25 09:30:57;;;;;;;10.10;8.02;;;13.20;99.90;;;;;;5069187;28;20080;-78
2022/09/25 09:33:23;;;;;;;10.55;8.20;;;13.50;99.90;;;;;;5059666;28;20029;-77
2022/09/25 09:36:44;;;;;;;11.57;8.57;;;13.40;99.90;;;;;;5073241;28;20404;-77
2022/09/25 09:39:22;;;;;;;11.23;8.77;;;13.30;99.90;;;;;;5041848;28;20524;-77
2022/09/25 09:42:24;;;;;;;12.32;8.20;;;13.30;99.90;;;;;;5063051;28;20369;-77
2022/09/25 09:44:57;;;;;;;10.18;8.30;;;13.30;99.90;;;;;;5071418;28;20059;-77
2022/09/25 09:48:04;;;;;;;13.13;9.25;;;13.30;99.90;;;;;;5069792;28;20032;-77
2022/09/25 09:50:48;;;;;;;11.98;8.75;;;13.30;99.90;;;;;;5065931;28;20642;-76
2022/09/25 09:53:45;;;;;;;12.82;8.50;;;13.30;99.90;;;;;;5080150;28;20036;-76
2022/09/25 09:56:22;;;;;;;15.20;8.52;;;13.20;99.90;;;;;;5062007;28;20036;-76
2022/09/25 09:58:51;;;;;;;13.95;8.32;;;13.20;99.90;;;;;;5069174;28;20024;-77
2022/09/25 10:01:25;;;;;;;16.58;10.35;;;13.30;99.90;;;;;;5070018;28;20047;-78
2022/09/25 10:04:07;;;;;;;14.75;9.27;;;13.30;99.90;;;;;;5065918;28;20029;-77
2022/09/25 10:06:38;;;;;;;12.45;8.98;;;13.20;99.90;;;;;;5065627;28;20056;-76
2022/09/25 10:09:05;;;;;;;11.05;8.30;;;13.20;99.90;;;;;;5062123;28;20098;-77
2022/09/25 10:11:32;;;;;;;15.77;9.63;;;13.20;99.90;;;;;;5066608;28;20052;-76
2022/09/25 10:14:02;;;;;;;10.68;8.63;;;13.20;99.90;;;;;;5065237;28;20060;-76
2022/09/25 10:16:29;;;;;;;13.85;9.18;;;13.30;99.90;;;;;;5072168;28;20024;-76
2022/09/25 10:18:59;;;;;;;15.23;9.73;;;13.30;99.90;;;;;;5070283;28;20366;-77
2022/09/25 10:21:42;;;;;;;16.23;9.57;;;13.30;99.90;;;;;;5068982;28;20431;-76
2022/09/25 10:24:07;;;;;;;14.52;9.52;;;13.30;99.90;;;;;;5066117;28;20028;-78
2022/09/25 10:26:35;;;;;;;16.98;9.68;;;13.30;99.90;;;;;;5083567;28;20029;-76
2022/09/25 10:29:04;;;;;;;15.23;9.48;;;13.30;99.90;;;;;;5068097;28;20039;-76
2022/09/25 10:31:39;;;;;;;13.73;8.93;;;13.20;99.90;;;;;;5070490;28;20025;-77
2022/09/25 10:34:16;;;;;;;13.65;10.27;;;13.30;99.90;;;;;;5068630;28;20047;-76
2022/09/25 10:36:47;;;;;;;17.25;10.73;;;13.30;99.90;;;;;;5069335;28;20480;-77
2022/09/25 10:39:38;;;;;;;13.48;10.10;;;13.30;99.90;;;;;;5068172;28;20096;-76
2022/09/25 10:42:25;;;;;;;14.35;9.07;;;13.30;99.90;;;;;;5069305;28;20048;-76
2022/09/25 10:44:54;;;;;;;17.15;9.65;;;13.30;99.90;;;;;;5066827;28;20174;-76
2022/09/25 10:50:16;;;;;;;11.88;8.27;;;13.20;99.90;;;;;;5068344;28;20492;-76
2022/09/25 10:52:49;;;;;;;12.35;8.02;;;13.20;99.90;;;;;;5067867;28;20642;-76
2022/09/25 10:55:28;;;;;;;14.63;8.40;;;13.20;99.90;;;;;;5070286;28;20105;-77
2022/09/25 10:58:09;;;;;;;11.38;8.05;;;13.30;99.90;;;;;;5083870;28;20078;-76
2022/09/25 11:00:50;;;;;;;13.83;7.17;;;13.20;99.90;;;;;;5075085;28;20103;-76
2022/09/25 11:03:21;;;;;;;9.70;6.32;;;13.10;99.90;;;;;;5067513;28;20367;-77
2022/09/25 11:05:51;;;;;;;;;;;13.10;99.90;;;;;;5069611;28;20157;-77
2022/09/25 11:08:17;;;;;;;11.02;7.10;;;13.20;99.90;;;;;;5066195;28;20389;-77
2022/09/25 11:10:58;;;;;;;17.50;8.13;;;13.20;99.90;;;;;;5066540;28;20081;-76
2022/09/25 11:13:35;;;;;;;68.35;32.15;;;13.20;99.90;;;;;;5071228;28;20234;-76
2022/09/25 11:16:08;;;;;;;12.68;8.40;;;13.60;99.90;;;;;;5067274;28;20032;-77
2022/09/25 11:18:43;;;;;;;11.45;7.30;;;13.40;99.90;;;;;;5070612;28;20558;-77
2022/09/25 11:21:20;;;;;;;1774.90;829.33;;;13.30;99.90;;;;;;5067199;28;20032;-77
2022/09/25 11:23:57;;;;;;;21.58;14.80;;;13.30;99.90;;;;;;5067400;28;20021;-76
2022/09/25 11:26:31;;;;;;;1588.72;792.13;;;13.20;99.90;;;;;;5067721;28;20040;-77
2022/09/25 11:29:15;;;;;;;238.18;165.70;;;13.30;99.90;;;;;;5063215;28;20063;-77
2022/09/25 11:31:47;;;;;;;173.85;112.40;;;13.30;99.90;;;;;;5066592;28;20040;-76
2022/09/25 11:34:16;;;;;;;506.05;406.50;;;13.30;99.90;;;;;;5069207;28;20127;-77
2022/09/25 11:37:17;;;;;;;66.93;40.67;;;13.30;99.90;;;;;;5068255;28;20031;-77
2022/09/25 11:43:12;;;;;;;20.08;11.93;;;13.40;99.90;;;;;;5067763;28;20082;-75
2022/09/25 11:45:50;;;;;;;14.73;9.15;;;13.40;99.90;;;;;;5065248;28;20109;-75
2022/09/25 11:48:20;;;;;;;11.15;8.25;;;13.40;99.90;;;;;;5059679;28;20430;-77
2022/09/25 11:51:09;;;;;;;14.38;8.95;;;13.30;99.90;;;;;;5070169;28;20044;-77
2022/09/25 11:53:52;;;;;;;18.88;9.13;;;13.20;99.90;;;;;;5065541;28;20456;-77
2022/09/25 11:56:30;;;;;;;12.82;8.20;;;13.20;99.90;;;;;;5066163;28;20044;-77
2022/09/25 11:59:10;;;;;;;13.85;8.13;;;13.20;99.90;;;;;;5067975;28;20024;-76
2022/09/25 12:01:51;;;;;;;14.45;9.02;;;13.20;99.90;;;;;;5056531;28;20027;-76
2022/09/25 12:04:20;;;;;;;15.18;8.20;;;13.10;99.90;;;;;;5057998;28;20453;-77
2022/09/25 12:07:27;;;;;;;13.50;7.38;;;13.10;99.90;;;;;;5067997;28;20028;-76
2022/09/25 12:10:15;;;;;;;12.70;6.95;;;13.10;99.90;;;;;;5060791;28;20032;-77
2022/09/25 12:12:52;;;;;;;12.55;7.25;;;13.00;99.90;;;;;;5065206;28;20045;-77
2022/09/25 12:15:28;;;;;;;12.40;8.02;;;13.10;99.90;;;;;;5066520;28;20122;-76
2022/09/25 12:18:34;;;;;;;12.93;7.85;;;13.10;99.90;;;;;;5063592;28;20031;-77
2022/09/25 12:21:18;;;;;;;13.27;7.95;;;13.10;99.90;;;;;;5061438;28;20104;-77
2022/09/25 12:23:56;;;;;;;11.93;7.47;;;13.10;99.90;;;;;;5063680;28;20128;-78
2022/09/25 12:26:34;;;;;;;12.00;7.50;;;13.10;99.90;;;;;;5068299;28;20074;-82
2022/09/25 12:29:29;;;;;;;15.77;8.05;;;13.00;99.90;;;;;;5066617;28;20029;-78
2022/09/25 12:32:29;;;;;;;12.50;7.45;;;13.10;99.90;;;;;;5054421;28;20044;-77
2022/09/25 12:35:25;;;;;;;9.65;6.07;;;13.10;99.90;;;;;;5064205;28;20089;-77
2022/09/25 12:38:04;;;;;;;126.78;62.20;;;13.10;99.90;;;;;;5059609;28;20021;-76
2022/09/25 12:40:54;;;;;;;11.55;7.18;;;13.40;99.90;;;;;;5062565;28;20020;-76
2022/09/25 12:43:22;;;;;;;8.93;5.97;;;13.30;99.90;;;;;;5065231;28;20028;-76
2022/09/25 12:46:13;;;;;;;12.23;6.40;;;13.20;99.90;;;;;;5055107;28;20040;-75
2022/09/25 12:49:25;;;;;;;10.18;5.90;;;13.20;99.90;;;;;;5061495;28;20036;-77
2022/09/25 12:51:54;;;;;;;12.95;6.07;;;13.20;99.90;;;;;;5047513;28;20575;-78
2022/09/25 12:54:35;;;;;;;10.88;6.28;;;13.20;99.90;;;;;;5049459;28;20067;-77
2022/09/25 12:57:08;;;;;;;10.45;5.65;;;13.20;99.90;;;;;;5067814;28;20029;-76
2022/09/25 12:59:37;;;;;;;7.93;5.63;;;13.20;99.90;;;;;;5070251;28;20074;-76
2022/09/25 13:02:18;;;;;;;13.40;5.70;;;13.30;99.90;;;;;;5067036;28;20021;-78
2022/09/25 13:05:20;;;;;;;7.43;5.07;;;13.30;99.90;;;;;;5069485;28;20024;-77
2022/09/25 13:08:09;;;;;;;8.05;4.22;;;13.20;99.90;;;;;;5068228;28;20127;-78
2022/09/25 13:10:42;;;;;;;8.52;4.05;;;13.20;99.90;;;;;;5066982;28;20028;-78
2022/09/25 13:13:26;;;;;;;6.38;3.85;;;13.20;99.90;;;;;;5071762;28;20044;-77
2022/09/25 13:15:59;;;;;;;5.75;3.83;;;13.30;99.90;;;;;;5061671;28;20029;-77
2022/09/25 13:18:29;;;;;;;5.05;3.53;;;13.40;99.90;;;;;;5057671;28;20036;-76
2022/09/25 13:20:55;;;;;;;5.22;3.58;;;13.50;99.90;;;;;;5060148;28;20039;-74
2022/09/25 13:23:29;;;;;;;5.45;3.67;;;13.60;99.90;;;;;;5079082;28;20029;-77
2022/09/25 13:26:00;;;;;;;8.90;4.03;;;13.60;99.90;;;;;;5068238;28;20032;-77
2022/09/25 13:28:29;;;;;;;;;;;13.70;99.90;;;;;;5068813;28;20112;-78
2022/09/25 13:30:59;;;;;;;12.98;3.78;;;13.70;99.90;;;;;;5064123;28;19912;-77